Time;durP1;ratioP1;P1;durP2;ratioP2;P2;SDS_P1;SDS_P2;PMS_P1;PMS_P2;Temp;Humidity;BMP_temperature;BMP_pressure;BME280_temperature;BME280_humidity;BME280_pressure;Samples;Min_cycle;Max_cycle;Signal;HPM_P1;HPM_P2
2021/07/27 04:52:59;;;;;;;18.43;16.53;;;21.10;99.90;;;;;;5047115;28;20484;-86
2021/07/27 04:57:59;;;;;;;25.93;22.70;;;22.30;99.90;;;;;;5045177;28;20480;-87
2021/07/27 05:00:30;;;;;;;15.73;14.10;;;22.90;99.90;;;;;;5043709;28;20466;-86
2021/07/27 05:02:58;;;;;;;21.10;18.60;;;23.10;99.90;;;;;;5040599;28;20867;-83
2021/07/27 05:05:26;;;;;;;17.60;14.40;;;23.20;99.90;;;;;;5037055;28;21017;-83
2021/07/27 05:07:55;;;;;;;14.80;13.30;;;23.40;99.90;;;;;;5054227;28;20496;-86
2021/07/27 05:10:22;;;;;;;17.50;15.83;;;23.60;99.90;;;;;;5060250;28;20478;-86
2021/07/27 05:12:49;;;;;;;17.10;15.23;;;23.60;99.90;;;;;;5060748;28;20450;-85
2021/07/27 05:15:16;;;;;;;16.57;14.93;;;23.60;99.90;;;;;;5060409;28;20446;-86
2021/07/27 05:17:43;;;;;;;17.97;16.10;;;23.60;99.90;;;;;;5060838;28;20453;-85
2021/07/27 05:20:15;;;;;;;19.43;16.80;;;23.40;99.90;;;;;;5063880;28;20441;-87
2021/07/27 16:16:13;;;;;;;14.67;9.80;;;25.20;93.10;;;;;;5072865;28;20463;-83
2021/07/27 16:18:40;;;;;;;8.93;8.00;;;25.00;93.50;;;;;;5053831;28;20536;-83
2021/07/27 16:21:07;;;;;;;12.07;7.20;;;24.70;94.10;;;;;;5062241;28;20446;-84
2021/07/27 16:23:35;;;;;;;9.83;6.37;;;24.60;93.90;;;;;;5064944;28;20441;-83
2021/07/27 16:26:03;;;;;;;7.20;5.60;;;24.40;94.10;;;;;;5063496;28;20481;-84
2021/07/27 16:28:32;;;;;;;6.00;4.50;;;24.20;94.40;;;;;;5065887;28;20449;-84
2021/07/27 16:32:04;;;;;;;4.87;4.37;;;24.10;94.70;;;;;;5058897;28;20459;-84
2021/07/27 16:34:42;;;;;;;5.10;4.60;;;23.60;95.10;;;;;;5055338;28;20641;-84
2021/07/27 16:37:11;;;;;;;7.87;4.47;;;23.30;96.10;;;;;;5058776;28;20472;-85
2021/07/27 16:39:39;;;;;;;6.00;5.40;;;23.10;97.10;;;;;;5067636;28;20438;-84
2021/07/27 16:42:07;;;;;;;5.60;4.70;;;22.90;97.40;;;;;;5056539;28;20446;-85
2021/07/27 16:44:36;;;;;;;7.97;5.10;;;22.70;98.00;;;;;;5067100;28;20434;-83
2021/07/27 16:47:05;;;;;;;10.00;5.53;;;22.70;98.30;;;;;;5067809;28;20474;-84
2021/07/27 16:49:32;;;;;;;4.97;4.13;;;22.60;98.70;;;;;;5067446;28;20446;-85
2021/07/27 16:52:00;;;;;;;7.10;5.60;;;22.50;98.60;;;;;;5060646;28;20476;-83
2021/07/27 16:54:27;;;;;;;6.53;5.50;;;22.50;99.00;;;;;;5065825;28;20513;-84
2021/07/27 16:56:55;;;;;;;4.73;4.23;;;22.60;99.10;;;;;;5070183;28;21021;-84
2021/07/27 16:59:22;;;;;;;5.70;5.10;;;22.60;98.70;;;;;;5068119;28;20456;-84
2021/07/27 17:01:56;;;;;;;6.20;4.90;;;22.60;98.90;;;;;;5067032;28;20445;-85
2021/07/27 17:04:23;;;;;;;5.63;5.03;;;22.70;98.50;;;;;;5057244;28;20455;-84
2021/07/27 17:06:51;;;;;;;6.33;4.57;;;22.80;98.30;;;;;;5065087;28;21028;-83
2021/07/27 17:09:26;;;;;;;8.00;6.80;;;22.80;98.10;;;;;;5064946;28;20931;-84
2021/07/27 17:11:53;;;;;;;5.63;4.67;;;22.80;98.50;;;;;;5063064;28;20606;-84
2021/07/27 17:14:20;;;;;;;6.30;5.23;;;22.80;98.20;;;;;;5062502;28;20464;-85
2021/07/27 17:16:51;;;;;;;5.83;4.93;;;22.90;97.70;;;;;;5069363;28;20472;-85
2021/07/27 17:19:18;;;;;;;5.63;4.40;;;22.90;97.70;;;;;;5067250;28;20450;-85
2021/07/27 17:21:48;;;;;;;4.77;4.23;;;22.90;97.60;;;;;;5063440;28;20506;-83
2021/07/27 17:24:17;;;;;;;7.47;4.10;;;22.90;97.80;;;;;;5063357;28;20451;-84
2021/07/27 17:26:45;;;;;;;6.43;5.80;;;22.90;97.50;;;;;;5071028;28;20474;-84
2021/07/27 17:29:18;;;;;;;5.23;4.73;;;22.90;97.30;;;;;;5069404;28;20494;-85
2021/07/27 17:31:46;;;;;;;6.03;4.60;;;23.00;97.20;;;;;;5067010;28;20472;-84
2021/07/27 17:34:15;;;;;;;5.80;4.80;;;22.90;97.20;;;;;;5068603;28;20453;-84
2021/07/27 17:36:44;;;;;;;8.13;4.60;;;22.80;97.10;;;;;;5069525;28;20479;-84
2021/07/27 17:39:21;;;;;;;6.03;4.43;;;22.80;96.80;;;;;;5066949;28;20508;-84
2021/07/27 17:41:48;;;;;;;4.70;4.30;;;22.80;96.50;;;;;;5072018;28;20446;-85
2021/07/27 17:44:25;;;;;;;5.10;4.60;;;22.70;96.80;;;;;;5069998;28;20458;-85
2021/07/27 17:47:38;;;;;;;4.03;3.63;;;22.60;96.80;;;;;;5089480;23;20481;-86
2021/07/27 17:50:11;;;;;;;3.90;3.37;;;22.60;97.10;;;;;;5049344;28;20469;-84
2021/07/27 17:52:38;;;;;;;4.30;3.90;;;22.50;96.70;;;;;;5065935;28;20450;-84
2021/07/27 17:55:07;;;;;;;4.47;4.00;;;22.50;96.90;;;;;;5061031;28;20442;-83
2021/07/27 17:57:36;;;;;;;4.37;3.97;;;22.70;96.80;;;;;;5066349;28;20522;-84
2021/07/27 18:00:04;;;;;;;4.30;3.90;;;22.60;96.70;;;;;;5065092;28;20454;-83
2021/07/27 18:02:32;;;;;;;4.60;3.83;;;22.50;96.90;;;;;;5065344;28;20537;-83
2021/07/27 18:04:59;;;;;;;5.17;4.20;;;22.60;97.20;;;;;;5058489;28;20442;-84
2021/07/27 18:07:28;;;;;;;4.93;4.27;;;22.60;97.40;;;;;;5056510;28;20497;-85
2021/07/27 18:09:55;;;;;;;5.33;3.57;;;22.50;97.90;;;;;;5065649;28;20450;-86
2021/07/27 18:12:22;;;;;;;7.33;4.10;;;22.40;97.50;;;;;;5064795;28;20450;-84
2021/07/27 18:22:53;;;;;;;4.40;4.00;;;22.10;98.50;;;;;;5040887;28;20480;-84
2021/07/27 18:34:24;;;;;;;6.73;4.97;;;21.80;99.70;;;;;;5036449;28;20478;-86
2021/07/27 18:36:51;;;;;;;6.53;5.03;;;21.90;99.90;;;;;;5050701;28;20465;-85
2021/07/27 18:40:06;;;;;;;6.67;4.70;;;21.90;99.90;;;;;;5059185;28;20433;-87
2021/07/27 18:42:34;;;;;;;5.70;5.07;;;21.80;99.90;;;;;;5050796;28;20461;-84
2021/07/27 18:45:01;;;;;;;6.17;4.80;;;21.80;99.90;;;;;;5051986;28;20797;-83
2021/07/27 18:55:41;;;;;;;4.77;4.27;;;21.70;99.90;;;;;;5073799;28;20482;-86
2021/07/27 19:01:52;;;;;;;7.57;5.03;;;21.60;99.90;;;;;;5031943;28;21107;-86
2021/07/27 19:08:58;;;;;;;7.07;5.63;;;21.40;99.90;;;;;;4942599;29;20473;-87
2021/07/27 19:11:27;;;;;;;6.40;5.43;;;21.30;99.90;;;;;;4974474;28;20478;-85
2021/07/27 19:13:55;;;;;;;7.83;5.47;;;21.30;99.90;;;;;;5042481;28;20434;-85
2021/07/27 19:16:22;;;;;;;7.47;5.20;;;21.30;99.90;;;;;;5052029;28;20545;-88
2021/07/27 19:18:49;;;;;;;6.57;5.27;;;21.40;99.90;;;;;;5059688;28;20520;-86
2021/07/27 19:21:16;;;;;;;5.80;5.20;;;21.30;99.90;;;;;;5060680;28;20459;-82
2021/07/27 19:23:46;;;;;;;6.57;5.90;;;21.30;99.90;;;;;;5054351;28;20945;-86
2021/07/27 19:26:13;;;;;;;5.47;4.50;;;21.20;99.90;;;;;;5069859;28;20473;-86
2021/07/27 19:28:42;;;;;;;6.37;5.00;;;21.20;99.90;;;;;;5072567;28;20442;-89
2021/07/27 19:31:09;;;;;;;7.27;6.10;;;21.20;99.90;;;;;;5060631;28;20433;-86
2021/07/27 19:33:37;;;;;;;7.30;6.20;;;21.20;99.90;;;;;;5065994;28;20500;-86
2021/07/27 19:36:05;;;;;;;9.07;6.83;;;21.10;99.90;;;;;;5053569;28;20501;-85
2021/07/27 19:38:32;;;;;;;7.10;6.40;;;21.10;99.90;;;;;;5061559;28;20860;-84
2021/07/27 19:41:01;;;;;;;15.60;7.07;;;21.00;99.90;;;;;;5053767;28;20528;-86
2021/07/27 19:43:36;;;;;;;9.27;7.37;;;21.00;99.90;;;;;;5061077;28;20452;-84
2021/07/27 19:46:27;;;;;;;7.63;6.83;;;21.10;99.90;;;;;;5056517;28;20550;-85
2021/07/27 19:49:02;;;;;;;8.30;7.20;;;21.00;99.90;;;;;;5053244;28;20936;-87
2021/07/27 19:51:29;;;;;;;9.43;7.83;;;21.10;99.90;;;;;;5053085;28;20523;-87
2021/07/27 19:53:57;;;;;;;9.23;8.37;;;21.00;99.90;;;;;;5060542;28;20470;-85
2021/07/27 19:56:24;;;;;;;11.00;8.57;;;21.00;99.90;;;;;;5060000;28;20468;-86
2021/07/27 19:58:51;;;;;;;11.90;9.00;;;21.00;99.90;;;;;;5052224;28;20532;-85
2021/07/27 20:01:20;;;;;;;10.00;9.10;;;21.00;99.90;;;;;;5054663;28;20449;-86
2021/07/27 20:03:50;;;;;;;14.10;11.07;;;21.00;99.90;;;;;;5058045;28;20440;-88
2021/07/27 20:06:17;;;;;;;10.30;8.90;;;20.90;99.90;;;;;;5064049;28;20476;-86
2021/07/27 20:08:44;;;;;;;13.13;11.10;;;21.00;99.90;;;;;;5057870;28;20505;-87
2021/07/27 20:11:11;;;;;;;11.13;10.03;;;21.00;99.90;;;;;;5055694;28;20449;-88
2021/07/27 20:13:39;;;;;;;11.20;10.07;;;20.90;99.90;;;;;;5049434;28;20467;-86
2021/07/27 20:16:06;;;;;;;12.63;11.53;;;20.80;99.90;;;;;;5051315;28;20468;-86
2021/07/27 20:18:35;;;;;;;13.00;11.37;;;20.80;99.90;;;;;;5050237;28;20526;-88
2021/07/27 20:21:02;;;;;;;12.80;11.50;;;20.70;99.90;;;;;;5065600;28;20551;-84
2021/07/27 20:23:29;;;;;;;11.80;10.60;;;20.70;99.90;;;;;;5056428;28;20452;-84
2021/07/27 20:25:56;;;;;;;11.27;10.27;;;20.60;99.90;;;;;;5047895;28;20520;-89
2021/07/27 20:28:29;;;;;;;11.33;10.33;;;20.60;99.90;;;;;;5048622;28;20474;-88
2021/07/27 21:25:23;;;;;;;3.90;3.60;;;20.40;99.90;;;;;;5085093;28;20531;-84
2021/07/27 21:27:50;;;;;;;4.43;3.60;;;20.40;99.90;;;;;;5068268;28;20477;-84
2021/07/27 21:30:17;;;;;;;4.30;3.60;;;20.40;99.90;;;;;;5057977;28;20443;-84
2021/07/27 21:32:45;;;;;;;3.97;3.60;;;20.50;99.90;;;;;;5067362;28;20454;-83
2021/07/27 21:35:13;;;;;;;4.67;4.27;;;20.50;99.90;;;;;;5068138;28;20473;-84
2021/07/27 21:37:41;;;;;;;4.30;3.60;;;20.60;99.90;;;;;;5068185;28;20947;-84
2021/07/27 21:40:09;;;;;;;5.53;3.87;;;20.60;99.90;;;;;;5059843;28;20450;-84
2021/07/27 21:42:37;;;;;;;4.50;3.87;;;20.50;99.90;;;;;;5057967;28;20453;-85
2021/07/27 21:45:05;;;;;;;4.37;3.80;;;20.50;99.90;;;;;;5063910;28;20475;-84
2021/07/27 21:47:34;;;;;;;3.93;3.63;;;20.50;99.90;;;;;;5051120;28;20563;-84
2021/07/27 21:50:02;;;;;;;4.00;3.60;;;20.50;99.90;;;;;;5056293;28;20455;-84
2021/07/27 21:52:29;;;;;;;5.27;3.67;;;20.40;99.90;;;;;;5061332;28;20458;-83
2021/07/27 21:54:56;;;;;;;4.10;3.80;;;20.30;99.90;;;;;;5057561;28;20446;-84
2021/07/27 21:57:23;;;;;;;6.70;4.30;;;20.40;99.90;;;;;;5066077;28;21025;-84
2021/07/27 21:59:52;;;;;;;3.43;2.97;;;20.40;99.90;;;;;;5066083;28;20476;-84
2021/07/27 22:02:19;;;;;;;3.70;3.00;;;20.30;99.90;;;;;;5054758;28;20813;-85
2021/07/27 22:04:46;;;;;;;3.87;3.50;;;20.20;99.90;;;;;;5050210;28;20447;-84
2021/07/27 22:07:13;;;;;;;5.90;3.93;;;20.20;99.90;;;;;;5065893;28;20498;-85
2021/07/27 22:09:40;;;;;;;4.43;4.00;;;20.20;99.90;;;;;;5053677;28;20485;-83
2021/07/27 22:12:07;;;;;;;4.30;3.90;;;20.20;99.90;;;;;;5062248;28;20450;-84
2021/07/27 22:14:34;;;;;;;4.50;3.40;;;20.20;99.90;;;;;;5058275;28;20454;-84
2021/07/27 22:17:03;;;;;;;5.40;4.00;;;20.20;99.90;;;;;;5060097;28;20473;-83
2021/07/27 22:19:30;;;;;;;6.00;3.90;;;20.20;99.90;;;;;;5058033;28;20535;-84
2021/07/27 22:21:57;;;;;;;4.90;4.40;;;20.20;99.90;;;;;;5064890;28;20512;-84
2021/07/27 22:24:24;;;;;;;4.83;4.33;;;20.20;99.90;;;;;;5052940;28;20473;-83
2021/07/27 22:26:52;;;;;;;4.77;3.70;;;20.10;99.90;;;;;;5058625;28;20470;-82
2021/07/27 22:29:19;;;;;;;4.00;3.60;;;20.00;99.90;;;;;;5072761;28;20488;-84
2021/07/27 22:31:46;;;;;;;4.20;3.77;;;19.80;99.90;;;;;;5068556;28;20429;-84
2021/07/27 22:34:15;;;;;;;4.80;4.27;;;19.80;99.90;;;;;;5070542;28;20430;-84
2021/07/27 22:36:42;;;;;;;4.13;3.73;;;19.70;99.90;;;;;;5078050;28;20457;-84
2021/07/27 22:39:09;;;;;;;4.40;4.00;;;19.60;99.90;;;;;;5068439;28;20500;-84
2021/07/27 22:41:36;;;;;;;6.50;4.43;;;19.60;99.90;;;;;;5077038;28;20485;-84
2021/07/27 22:44:04;;;;;;;4.87;4.37;;;19.60;99.90;;;;;;5071528;28;20453;-83
2021/07/27 22:46:31;;;;;;;6.90;5.27;;;19.60;99.90;;;;;;5061533;28;20463;-83
2021/07/27 22:48:58;;;;;;;5.57;4.20;;;19.60;99.90;;;;;;5066335;28;20470;-84
2021/07/27 22:51:26;;;;;;;5.33;4.67;;;19.60;99.90;;;;;;5062834;28;20445;-84
2021/07/27 22:53:55;;;;;;;5.73;5.17;;;19.60;99.90;;;;;;5062456;28;20445;-84
2021/07/27 22:56:28;;;;;;;5.30;4.77;;;19.60;99.90;;;;;;5068728;28;20481;-84
2021/07/27 22:58:55;;;;;;;4.40;4.00;;;19.60;99.90;;;;;;5066039;28;20434;-84
2021/07/27 23:01:22;;;;;;;4.57;4.03;;;19.60;99.90;;;;;;5055969;28;20471;-84
2021/07/27 23:03:49;;;;;;;4.60;4.10;;;19.70;99.90;;;;;;5053594;28;20449;-83
2021/07/27 23:06:16;;;;;;;6.77;4.27;;;19.60;99.90;;;;;;5067837;28;20451;-84
2021/07/27 23:08:44;;;;;;;4.70;3.60;;;19.70;99.90;;;;;;5079982;28;20477;-84
2021/07/27 23:11:11;;;;;;;5.13;4.13;;;19.70;99.90;;;;;;5074992;28;20437;-84
2021/07/27 23:13:38;;;;;;;5.00;4.27;;;19.70;99.90;;;;;;5064234;28;20441;-84
2021/07/27 23:16:06;;;;;;;4.60;4.07;;;19.70;99.90;;;;;;5066499;28;20463;-83
2021/07/27 23:18:33;;;;;;;4.93;4.30;;;19.70;99.90;;;;;;5074156;28;20456;-83
2021/07/27 23:21:01;;;;;;;5.20;4.40;;;19.60;99.90;;;;;;5075134;28;20433;-84
2021/07/27 23:23:28;;;;;;;4.57;4.17;;;19.70;99.90;;;;;;5075704;28;20444;-84
2021/07/27 23:25:58;;;;;;;4.73;4.27;;;19.60;99.90;;;;;;5071310;28;20466;-84
2021/07/27 23:28:25;;;;;;;3.63;3.33;;;19.60;99.90;;;;;;5066056;28;20478;-82
2021/07/27 23:30:52;;;;;;;4.87;4.10;;;19.60;99.90;;;;;;5065895;28;20444;-85
2021/07/27 23:33:19;;;;;;;5.00;4.50;;;19.50;99.90;;;;;;5066847;28;20443;-83
2021/07/27 23:35:47;;;;;;;5.23;4.73;;;19.60;99.90;;;;;;5060801;28;20470;-84
2021/07/27 23:38:15;;;;;;;5.03;4.53;;;19.50;99.90;;;;;;5064148;28;20443;-84
2021/07/27 23:40:42;;;;;;;9.73;3.70;;;19.40;99.90;;;;;;5070742;28;20455;-84
2021/07/27 23:43:10;;;;;;;4.90;4.20;;;19.40;99.90;;;;;;5064393;28;20437;-83
2021/07/27 23:45:37;;;;;;;5.23;4.23;;;19.40;99.90;;;;;;5062925;28;20457;-84
2021/07/27 23:48:05;;;;;;;4.80;4.40;;;19.40;99.90;;;;;;5060327;28;20969;-84
2021/07/27 23:50:32;;;;;;;3.80;3.30;;;19.40;99.90;;;;;;5062644;28;20493;-84
2021/07/27 23:52:59;;;;;;;9.10;5.30;;;19.30;99.90;;;;;;5068752;28;20496;-84
2021/07/27 23:55:26;;;;;;;5.07;4.57;;;19.30;99.90;;;;;;5058063;28;20438;-84
2021/07/27 23:57:53;;;;;;;5.63;4.00;;;19.30;99.90;;;;;;5068635;28;20442;-84
